Time;durP1;ratioP1;P1;durP2;ratioP2;P2;SDS_P1;SDS_P2;PMS_P1;PMS_P2;Temp;Humidity;BMP_temperature;BMP_pressure;BME280_temperature;BME280_humidity;BME280_pressure;Samples;Min_cycle;Max_cycle;Signal;HPM_P1;HPM_P2
2023/11/18 00:00:10;;;;;;;36.50;23.40;;;;;;;;;;5135995;27;20412;-73
2023/11/18 00:02:56;;;;;;;41.45;23.73;;;;;;;;;;5135918;27;20019;-72
2023/11/18 00:05:42;;;;;;;36.78;23.15;;;;;;;;;;5136808;27;20038;-71
2023/11/18 00:08:27;;;;;;;35.72;23.20;;;;;;;;;;5121825;27;20027;-71
2023/11/18 00:11:13;;;;;;;39.10;23.67;;;;;;;;;;5136056;27;20098;-72
2023/11/18 00:13:59;;;;;;;38.72;24.38;;;;;;;;;;5136617;27;20031;-71
2023/11/18 00:16:45;;;;;;;38.55;23.15;;;;;;;;;;5135393;27;20076;-72
2023/11/18 00:19:31;;;;;;;39.00;22.98;;;;;;;;;;5136108;27;20033;-72
2023/11/18 00:22:16;;;;;;;35.70;23.17;;;;;;;;;;5136463;27;20023;-73
2023/11/18 00:25:05;;;;;;;41.58;24.45;;;;;;;;;;5135675;27;20059;-71
2023/11/18 00:27:50;;;;;;;36.67;22.70;;;;;;;;;;5135710;27;20092;-72
2023/11/18 00:30:36;;;;;;;39.80;23.77;;;;;;;;;;5135216;27;20027;-71
2023/11/18 00:33:21;;;;;;;43.78;26.40;;;;;;;;;;5136691;27;20046;-73
2023/11/18 00:36:07;;;;;;;47.72;27.25;;;;;;;;;;5135627;27;20023;-72
2023/11/18 00:38:53;;;;;;;45.88;26.02;;;;;;;;;;5135383;27;20336;-71
2023/11/18 00:41:38;;;;;;;48.72;26.35;;;;;;;;;;5136079;27;20023;-73
2023/11/18 00:44:24;;;;;;;45.55;27.35;;;;;;;;;;5135616;27;20451;-72
2023/11/18 00:47:09;;;;;;;48.80;27.83;;;;;;;;;;5136812;27;20031;-73
2023/11/18 00:49:55;;;;;;;47.45;28.25;;;;;;;;;;5135707;27;20011;-73
2023/11/18 00:52:41;;;;;;;48.35;28.98;;;;;;;;;;5135969;27;20122;-72
2023/11/18 00:55:27;;;;;;;52.85;29.10;;;;;;;;;;5135788;27;20034;-72
2023/11/18 00:58:13;;;;;;;52.78;28.95;;;;;;;;;;5135473;27;20098;-72
2023/11/18 01:00:59;;;;;;;50.58;30.05;;;;;;;;;;5119513;27;20096;-72
2023/11/18 01:03:46;;;;;;;51.83;28.60;;;;;;;;;;5135596;27;20019;-72
2023/11/18 01:06:32;;;;;;;48.55;28.92;;;;;;;;;;5134595;27;20023;-72
2023/11/18 01:09:18;;;;;;;49.50;28.30;;;;;;;;;;5135453;27;20438;-72
2023/11/18 01:12:04;;;;;;;53.20;29.58;;;;;;;;;;5135210;27;20019;-71
2023/11/18 01:14:49;;;;;;;50.92;28.20;;;;;;;;;;5135581;27;20102;-72
2023/11/18 01:17:35;;;;;;;50.80;28.80;;;;;;;;;;5134722;27;20106;-72
2023/11/18 01:20:21;;;;;;;51.22;29.33;;;;;;;;;;5135586;27;20358;-71
2023/11/18 01:23:07;;;;;;;55.55;29.38;;;;;;;;;;5135079;27;20011;-72
2023/11/18 01:25:53;;;;;;;51.03;28.80;;;;;;;;;;5119315;27;20023;-73
2023/11/18 01:28:43;;;;;;;53.50;28.60;;;;;;;;;;5134986;27;20041;-72
2023/11/18 01:31:28;;;;;;;48.42;27.67;;;;;;;;;;5134570;27;20450;-71
2023/11/18 01:34:14;;;;;;;47.30;27.50;;;;;;;;;;5120139;27;20038;-71
2023/11/18 01:36:59;;;;;;;47.25;26.05;;;;;;;;;;5134847;27;20011;-73
2023/11/18 01:39:45;;;;;;;52.03;28.23;;;;;;;;;;5119036;27;20023;-71
2023/11/18 01:42:31;;;;;;;47.95;27.17;;;;;;;;;;5133936;27;20019;-72
2023/11/18 01:45:17;;;;;;;54.70;29.00;;;;;;;;;;5133948;27;20022;-71
2023/11/18 01:48:03;;;;;;;49.75;27.08;;;;;;;;;;5134529;27;20111;-72
2023/11/18 01:50:49;;;;;;;47.25;26.13;;;;;;;;;;5134426;27;20047;-72
2023/11/18 01:53:36;;;;;;;49.47;26.77;;;;;;;;;;5133702;27;20047;-71
2023/11/18 01:56:25;;;;;;;51.40;26.98;;;;;;;;;;5133461;27;20050;-71
2023/11/18 01:59:16;;;;;;;48.33;26.15;;;;;;;;;;5118767;27;20019;-72
2023/11/18 02:02:02;;;;;;;44.60;25.20;;;;;;;;;;5133307;27;20107;-72
2023/11/18 02:04:47;;;;;;;47.60;25.00;;;;;;;;;;5134185;27;20022;-72
2023/11/18 02:07:35;;;;;;;45.78;25.58;;;;;;;;;;5134149;27;20023;-72
2023/11/18 02:10:21;;;;;;;44.78;26.08;;;;;;;;;;5133602;27;20063;-71
2023/11/18 02:13:12;;;;;;;43.22;24.95;;;;;;;;;;5133794;27;20019;-72
2023/11/18 02:15:58;;;;;;;44.35;25.10;;;;;;;;;;5133739;27;20102;-72
2023/11/18 02:18:45;;;;;;;43.42;24.55;;;;;;;;;;5134749;27;20027;-72
2023/11/18 02:21:33;;;;;;;46.55;25.27;;;;;;;;;;5134179;27;20370;-73
2023/11/18 02:24:30;;;;;;;44.10;24.23;;;;;;;;;;5119264;27;20067;-73
2023/11/18 02:27:18;;;;;;;41.25;22.67;;;;;;;;;;5119906;27;20019;-72
2023/11/18 02:30:06;;;;;;;42.92;23.48;;;;;;;;;;5118196;28;20024;-72
2023/11/18 02:32:54;;;;;;;42.42;23.50;;;;;;;;;;5133746;28;20044;-72
2023/11/18 02:35:48;;;;;;;41.92;23.88;;;;;;;;;;5133818;28;20126;-71
2023/11/18 02:38:37;;;;;;;40.83;23.25;;;;;;;;;;5119440;28;20018;-72
2023/11/18 02:41:23;;;;;;;42.42;23.33;;;;;;;;;;5133794;28;20019;-72
2023/11/18 02:44:10;;;;;;;41.60;22.52;;;;;;;;;;5134858;28;20544;-72
2023/11/18 02:46:55;;;;;;;41.90;22.17;;;;;;;;;;5134611;28;20015;-70
2023/11/18 02:49:41;;;;;;;37.72;22.25;;;;;;;;;;5133753;28;20027;-72
2023/11/18 02:52:27;;;;;;;39.13;22.80;;;;;;;;;;5133686;28;20095;-72
2023/11/18 02:55:12;;;;;;;40.45;23.25;;;;;;;;;;5135875;27;20050;-73
2023/11/18 02:57:58;;;;;;;38.75;22.50;;;;;;;;;;5137418;27;20019;-72
2023/11/18 03:00:44;;;;;;;40.70;23.23;;;;;;;;;;5137733;27;20026;-72
2023/11/18 03:03:30;;;;;;;37.15;22.75;;;;;;;;;;5138044;27;20019;-71
2023/11/18 03:06:15;;;;;;;35.97;20.50;;;;;;;;;;5123123;27;20351;-71
2023/11/18 03:09:02;;;;;;;35.33;21.33;;;;;;;;;;5138551;27;20101;-72
2023/11/18 03:11:48;;;;;;;35.50;20.85;;;;;;;;;;5138188;27;20027;-72
2023/11/18 03:14:34;;;;;;;33.95;21.08;;;;;;;;;;5137019;27;20034;-71
2023/11/18 03:17:23;;;;;;;32.20;20.10;;;;;;;;;;5137046;27;20058;-72
2023/11/18 03:20:09;;;;;;;33.53;20.25;;;;;;;;;;5137077;27;20042;-72
2023/11/18 03:22:54;;;;;;;34.85;20.33;;;;;;;;;;5122353;27;20019;-73
2023/11/18 03:25:40;;;;;;;30.85;19.02;;;;;;;;;;5123008;27;20030;-72
2023/11/18 03:28:26;;;;;;;32.75;19.25;;;;;;;;;;5136666;27;20023;-72
2023/11/18 03:31:12;;;;;;;32.47;20.02;;;;;;;;;;5137129;27;20027;-72
2023/11/18 03:33:57;;;;;;;30.42;18.70;;;;;;;;;;5136635;27;20031;-72
2023/11/18 03:36:47;;;;;;;28.35;17.50;;;;;;;;;;5137424;27;20427;-72
2023/11/18 03:39:32;;;;;;;29.08;17.20;;;;;;;;;;5136738;27;20427;-72
2023/11/18 03:42:18;;;;;;;27.23;17.25;;;;;;;;;;5136934;27;20019;-71
2023/11/18 03:45:04;;;;;;;24.30;15.20;;;;;;;;;;5137134;27;20034;-73
2023/11/18 03:47:50;;;;;;;28.92;15.02;;;;;;;;;;5122351;27;20469;-73
2023/11/18 03:50:35;;;;;;;25.40;15.23;;;;;;;;;;5135628;27;20101;-72
2023/11/18 03:53:21;;;;;;;23.30;13.88;;;;;;;;;;5136454;27;20092;-72
2023/11/18 03:56:07;;;;;;;21.23;13.30;;;;;;;;;;5136727;27;20106;-72
2023/11/18 03:58:52;;;;;;;21.23;13.00;;;;;;;;;;5136429;27;20049;-72
2023/11/18 04:01:38;;;;;;;22.58;13.68;;;;;;;;;;5136864;27;20027;-71
2023/11/18 04:04:23;;;;;;;22.42;13.25;;;;;;;;;;5136561;27;20019;-71
2023/11/18 04:07:09;;;;;;;19.23;12.18;;;;;;;;;;5134575;27;20015;-71
2023/11/18 04:09:55;;;;;;;15.77;10.30;;;;;;;;;;5136206;27;20023;-71
2023/11/18 04:12:40;;;;;;;18.33;10.88;;;;;;;;;;5137239;27;20436;-73
2023/11/18 04:15:26;;;;;;;17.70;11.07;;;;;;;;;;5136750;27;20027;-72
2023/11/18 04:18:12;;;;;;;12.57;8.05;;;;;;;;;;5136292;27;20019;-72
2023/11/18 04:20:58;;;;;;;11.63;7.38;;;;;;;;;;5136244;27;20320;-71
2023/11/18 04:23:46;;;;;;;8.65;6.25;;;;;;;;;;5136065;27;20056;-72
2023/11/18 04:26:32;;;;;;;8.13;5.70;;;;;;;;;;5136718;27;20019;-71
2023/11/18 04:29:18;;;;;;;9.55;5.57;;;;;;;;;;5136219;27;20059;-71
2023/11/18 04:32:04;;;;;;;6.80;5.07;;;;;;;;;;5136582;27;20019;-72
2023/11/18 04:34:51;;;;;;;7.00;5.25;;;;;;;;;;5135963;27;20023;-71
2023/11/18 04:37:36;;;;;;;6.13;4.47;;;;;;;;;;5135621;27;20026;-72
2023/11/18 04:40:23;;;;;;;6.57;4.43;;;;;;;;;;5136455;27;20053;-72
2023/11/18 04:43:10;;;;;;;5.75;4.22;;;;;;;;;;5120344;27;20023;-72
2023/11/18 04:45:57;;;;;;;5.70;3.80;;;;;;;;;;5136261;27;20023;-73
2023/11/18 04:48:42;;;;;;;4.55;3.38;;;;;;;;;;5121972;27;20072;-73
2023/11/18 04:51:28;;;;;;;4.35;3.38;;;;;;;;;;5121821;27;20135;-72
2023/11/18 04:54:14;;;;;;;3.60;3.17;;;;;;;;;;5135619;27;20375;-72
2023/11/18 04:56:59;;;;;;;4.95;3.20;;;;;;;;;;5135754;27;20016;-72
2023/11/18 04:59:45;;;;;;;3.75;3.13;;;;;;;;;;5135063;27;20022;-71
2023/11/18 05:02:30;;;;;;;3.75;3.05;;;;;;;;;;5135860;27;20426;-71
2023/11/18 05:05:16;;;;;;;3.58;3.05;;;;;;;;;;5135014;27;20031;-71
2023/11/18 05:08:03;;;;;;;3.10;2.72;;;;;;;;;;5135141;27;20091;-72
2023/11/18 05:10:49;;;;;;;4.00;2.90;;;;;;;;;;5135360;27;20027;-71
2023/11/18 05:13:35;;;;;;;4.13;3.00;;;;;;;;;;5120404;27;20096;-72
2023/11/18 05:16:20;;;;;;;4.13;3.00;;;;;;;;;;5135583;27;20077;-71
2023/11/18 05:19:07;;;;;;;4.03;3.30;;;;;;;;;;5135652;27;20026;-72
2023/11/18 05:21:53;;;;;;;2.95;2.65;;;;;;;;;;5135314;27;20034;-72
2023/11/18 05:24:39;;;;;;;3.85;2.85;;;;;;;;;;5135691;27;20099;-72
2023/11/18 05:27:26;;;;;;;3.47;2.83;;;;;;;;;;5134894;27;20336;-71
2023/11/18 05:30:12;;;;;;;3.33;2.50;;;;;;;;;;5134939;27;20435;-72
2023/11/18 05:32:58;;;;;;;6.93;2.65;;;;;;;;;;5135221;27;20051;-71
2023/11/18 05:35:50;;;;;;;4.40;2.90;;;;;;;;;;5135144;27;20456;-71
2023/11/18 05:38:36;;;;;;;3.47;2.83;;;;;;;;;;5134752;27;20042;-72
2023/11/18 05:41:27;;;;;;;4.05;2.85;;;;;;;;;;5135111;27;20023;-71
2023/11/18 05:44:17;;;;;;;3.47;2.65;;;;;;;;;;5135137;27;20475;-71
2023/11/18 05:47:03;;;;;;;3.35;2.90;;;;;;;;;;5135275;27;20050;-72
2023/11/18 05:49:48;;;;;;;3.53;2.92;;;;;;;;;;5134529;27;20023;-72
2023/11/18 05:52:34;;;;;;;3.63;2.60;;;;;;;;;;5135928;27;20043;-72
2023/11/18 05:55:20;;;;;;;5.20;3.00;;;;;;;;;;5134357;27;20019;-72
2023/11/18 05:58:05;;;;;;;3.53;2.92;;;;;;;;;;5134235;27;20018;-71
2023/11/18 06:00:52;;;;;;;4.57;2.65;;;;;;;;;;5135299;27;20137;-72
2023/11/18 06:03:38;;;;;;;3.75;3.05;;;;;;;;;;5120774;27;20019;-73
2023/11/18 06:06:24;;;;;;;3.05;2.67;;;;;;;;;;5134688;27;20034;-72
2023/11/18 06:09:17;;;;;;;3.55;2.70;;;;;;;;;;5134536;27;20091;-71
2023/11/18 06:12:06;;;;;;;3.28;2.67;;;;;;;;;;5134670;27;20015;-72
2023/11/18 06:14:51;;;;;;;3.97;2.50;;;;;;;;;;5134525;27;20469;-72
2023/11/18 06:17:37;;;;;;;2.90;2.40;;;;;;;;;;5134287;27;20500;-72
2023/11/18 06:20:23;;;;;;;4.60;2.90;;;;;;;;;;5120073;27;20029;-71
2023/11/18 06:23:10;;;;;;;2.95;2.55;;;;;;;;;;5133860;27;20068;-70
2023/11/18 06:25:59;;;;;;;4.75;2.63;;;;;;;;;;5134312;27;20483;-72
2023/11/18 06:28:45;;;;;;;3.17;2.47;;;;;;;;;;5119003;27;20038;-72
2023/11/18 06:31:31;;;;;;;3.28;2.78;;;;;;;;;;5133710;27;20019;-71
2023/11/18 06:34:18;;;;;;;3.63;2.67;;;;;;;;;;5133533;28;20451;-71
2023/11/18 06:37:05;;;;;;;3.65;2.47;;;;;;;;;;5133705;28;20035;-72
2023/11/18 06:39:50;;;;;;;3.10;2.33;;;;;;;;;;5134164;28;20023;-71
2023/11/18 06:42:38;;;;;;;2.40;2.08;;;;;;;;;;5133516;28;20085;-71
2023/11/18 06:45:24;;;;;;;2.63;2.20;;;;;;;;;;5133250;28;20435;-72
2023/11/18 06:48:10;;;;;;;4.20;2.25;;;;;;;;;;5118259;28;20086;-71
2023/11/18 06:50:56;;;;;;;3.13;2.30;;;;;;;;;;5118941;28;20107;-72
2023/11/18 06:53:44;;;;;;;5.32;2.60;;;;;;;;;;5121475;28;20030;-72
2023/11/18 06:56:30;;;;;;;2.85;2.17;;;;;;;;;;5133852;28;20084;-73
2023/11/18 06:59:15;;;;;;;2.58;2.10;;;;;;;;;;5133646;28;20030;-72
2023/11/18 07:02:01;;;;;;;2.25;1.85;;;;;;;;;;5133734;28;20027;-72
2023/11/18 07:04:46;;;;;;;2.22;1.90;;;;;;;;;;5119984;28;20038;-72
2023/11/18 07:07:32;;;;;;;2.65;1.90;;;;;;;;;;5133825;28;20016;-72
2023/11/18 07:10:20;;;;;;;3.53;1.85;;;;;;;;;;5121231;28;20023;-72
2023/11/18 07:13:08;;;;;;;2.30;1.95;;;;;;;;;;5134041;28;20015;-71
2023/11/18 07:15:57;;;;;;;3.15;1.85;;;;;;;;;;5118218;28;20043;-71
2023/11/18 07:18:43;;;;;;;2.95;2.08;;;;;;;;;;5134033;28;20456;-72
2023/11/18 07:21:28;;;;;;;3.47;2.15;;;;;;;;;;5134190;28;20407;-72
2023/11/18 07:24:20;;;;;;;5.97;2.20;;;;;;;;;;5135240;28;20023;-73
2023/11/18 07:27:06;;;;;;;2.58;1.80;;;;;;;;;;5122842;28;20034;-72
2023/11/18 07:29:52;;;;;;;2.78;2.10;;;;;;;;;;5135309;28;20094;-70
2023/11/18 07:32:40;;;;;;;3.15;2.20;;;;;;;;;;5136478;28;20055;-71
2023/11/18 07:35:25;;;;;;;1.98;1.77;;;;;;;;;;5133636;28;20019;-70
2023/11/18 07:38:11;;;;;;;1.73;1.48;;;;;;;;;;5133124;28;20019;-71
2023/11/18 07:40:56;;;;;;;3.08;1.60;;;;;;;;;;5134723;27;20019;-70
2023/11/18 07:43:44;;;;;;;2.65;1.50;;;;;;;;;;5137284;27;20440;-71
2023/11/18 07:46:30;;;;;;;4.78;1.98;;;;;;;;;;5137082;27;20038;-71
2023/11/18 07:49:16;;;;;;;2.17;1.90;;;;;;;;;;5136550;27;20015;-71
2023/11/18 07:52:02;;;;;;;2.55;1.83;;;;;;;;;;5135833;27;20086;-72
2023/11/18 07:54:48;;;;;;;3.15;1.95;;;;;;;;;;5122266;27;20065;-71
2023/11/18 07:57:36;;;;;;;2.95;1.95;;;;;;;;;;5122614;27;20432;-71
2023/11/18 08:00:23;;;;;;;2.47;1.80;;;;;;;;;;5136277;27;20435;-71
2023/11/18 08:03:13;;;;;;;1.65;1.42;;;;;;;;;;5136493;27;20095;-72
2023/11/18 08:05:58;;;;;;;4.57;1.75;;;;;;;;;;5122167;27;20048;-71
2023/11/18 08:08:44;;;;;;;4.90;1.55;;;;;;;;;;5136415;27;20030;-71
2023/11/18 08:11:30;;;;;;;2.38;1.50;;;;;;;;;;5137793;27;20106;-71
2023/11/18 08:14:16;;;;;;;1.90;1.50;;;;;;;;;;5136790;27;20015;-70
2023/11/18 08:17:01;;;;;;;2.45;1.45;;;;;;;;;;5136731;27;20031;-71
2023/11/18 08:19:49;;;;;;;2.88;1.80;;;;;;;;;;5121892;27;20015;-70
2023/11/18 08:22:35;;;;;;;5.55;2.33;;;;;;;;;;5136636;27;20046;-70
2023/11/18 08:25:21;;;;;;;4.55;1.73;;;;;;;;;;5137452;27;20050;-71
2023/11/18 08:28:11;;;;;;;2.17;1.60;;;;;;;;;;5136935;27;20047;-72
2023/11/18 08:30:57;;;;;;;2.00;1.52;;;;;;;;;;5124375;27;20027;-73
2023/11/18 08:33:45;;;;;;;7.00;2.08;;;;;;;;;;5124255;27;20015;-72
2023/11/18 08:36:32;;;;;;;2.08;1.70;;;;;;;;;;5137937;27;20446;-71
2023/11/18 08:39:20;;;;;;;2.83;1.73;;;;;;;;;;5137977;27;20366;-71
2023/11/18 08:42:07;;;;;;;3.25;1.80;;;;;;;;;;5138147;27;20022;-71
2023/11/18 08:44:56;;;;;;;3.38;1.50;;;;;;;;;;5122513;27;20019;-71
2023/11/18 08:47:48;;;;;;;2.22;1.70;;;;;;;;;;5138284;27;20023;-70
2023/11/18 08:50:35;;;;;;;3.15;1.70;;;;;;;;;;5137119;27;20592;-70
2023/11/18 08:53:25;;;;;;;2.63;1.80;;;;;;;;;;5136454;27;20035;-71
2023/11/18 08:56:13;;;;;;;2.15;1.70;;;;;;;;;;5121864;27;20090;-71
2023/11/18 08:58:59;;;;;;;2.22;1.50;;;;;;;;;;5120221;27;20011;-69
2023/11/18 09:01:46;;;;;;;4.07;1.55;;;;;;;;;;5134674;27;20015;-70
2023/11/18 09:04:33;;;;;;;4.60;2.08;;;;;;;;;;5135887;27;20051;-71
2023/11/18 09:07:19;;;;;;;3.20;1.90;;;;;;;;;;5137119;27;20023;-72
2023/11/18 09:10:05;;;;;;;3.10;1.70;;;;;;;;;;5122049;27;20049;-71
2023/11/18 09:12:53;;;;;;;2.13;1.77;;;;;;;;;;5121944;27;20038;-72
2023/11/18 09:15:39;;;;;;;2.85;1.77;;;;;;;;;;5135332;27;20034;-71
2023/11/18 09:18:25;;;;;;;2.03;1.60;;;;;;;;;;5120833;27;20431;-71
2023/11/18 09:21:23;;;;;;;1.98;1.70;;;;;;;;;;5121080;27;20023;-71
2023/11/18 09:24:12;;;;;;;2.00;1.65;;;;;;;;;;5121858;27;20023;-72
2023/11/18 09:26:58;;;;;;;2.58;1.95;;;;;;;;;;5134975;27;20084;-71
2023/11/18 09:29:45;;;;;;;2.13;1.75;;;;;;;;;;5135234;27;20026;-71
2023/11/18 09:32:34;;;;;;;1.95;1.50;;;;;;;;;;5135598;27;20015;-70
2023/11/18 09:35:20;;;;;;;3.72;1.48;;;;;;;;;;5121555;27;20091;-71
2023/11/18 09:38:06;;;;;;;7.47;1.90;;;;;;;;;;5120334;27;20046;-72
2023/11/18 09:41:03;;;;;;;3.83;1.80;;;;;;;;;;5123043;27;20076;-72
2023/11/18 09:43:52;;;;;;;3.25;1.67;;;;;;;;;;5121966;27;20057;-72
2023/11/18 09:46:41;;;;;;;2.05;1.55;;;;;;;;;;5135369;27;20431;-71
2023/11/18 09:49:33;;;;;;;3.55;1.85;;;;;;;;;;5135553;27;20022;-73
2023/11/18 09:52:21;;;;;;;3.42;1.40;;;;;;;;;;5134683;27;20122;-71
2023/11/18 09:55:16;;;;;;;1.92;1.60;;;;;;;;;;5137048;27;20042;-72
2023/11/18 09:58:13;;;;;;;3.00;1.48;;;;;;;;;;5136642;27;20019;-71
2023/11/18 10:00:59;;;;;;;2.20;1.33;;;;;;;;;;5121418;27;20011;-71
2023/11/18 10:03:46;;;;;;;3.58;1.50;;;;;;;;;;5119835;27;20023;-70
2023/11/18 10:06:35;;;;;;;2.47;1.75;;;;;;;;;;5120893;27;20117;-72
2023/11/18 10:09:28;;;;;;;1.90;1.48;;;;;;;;;;5135545;27;20332;-71
2023/11/18 10:12:23;;;;;;;3.70;1.58;;;;;;;;;;5135482;27;20102;-70
2023/11/18 10:15:11;;;;;;;4.57;1.80;;;;;;;;;;5135189;27;20019;-71
2023/11/18 10:18:06;;;;;;;2.47;1.88;;;;;;;;;;5134923;27;20048;-72
2023/11/18 10:20:52;;;;;;;3.20;1.70;;;;;;;;;;5135020;27;20015;-70
2023/11/18 10:23:37;;;;;;;2.33;1.70;;;;;;;;;;5118528;27;20023;-70
2023/11/18 10:26:24;;;;;;;2.63;1.70;;;;;;;;;;5118370;27;20027;-71
2023/11/18 10:29:13;;;;;;;3.05;1.77;;;;;;;;;;5134212;27;20023;-70
2023/11/18 10:32:09;;;;;;;2.10;1.60;;;;;;;;;;5133985;27;20045;-70
2023/11/18 10:34:58;;;;;;;2.22;1.60;;;;;;;;;;5133756;28;20432;-70
2023/11/18 10:37:43;;;;;;;2.72;1.45;;;;;;;;;;5133976;28;20042;-71
2023/11/18 10:40:31;;;;;;;2.15;1.70;;;;;;;;;;5134547;28;20030;-71
2023/11/18 10:43:16;;;;;;;2.50;1.60;;;;;;;;;;5133992;28;20115;-71
2023/11/18 10:46:12;;;;;;;5.65;1.85;;;;;;;;;;5134551;28;20027;-71
2023/11/18 10:48:58;;;;;;;2.05;1.73;;;;;;;;;;5134394;28;20035;-71
2023/11/18 10:51:47;;;;;;;2.97;1.77;;;;;;;;;;5133898;28;20055;-69
2023/11/18 10:54:33;;;;;;;3.00;1.77;;;;;;;;;;5118992;28;20179;-70
2023/11/18 10:57:20;;;;;;;2.42;1.70;;;;;;;;;;5119173;28;20446;-71
2023/11/18 11:00:18;;;;;;;2.53;1.60;;;;;;;;;;5133805;28;20019;-71
2023/11/18 11:03:04;;;;;;;2.53;1.77;;;;;;;;;;5119372;28;20487;-71
2023/11/18 11:05:49;;;;;;;2.40;1.75;;;;;;;;;;5133107;28;20079;-70
2023/11/18 11:08:35;;;;;;;4.20;1.70;;;;;;;;;;5133097;28;20020;-70
2023/11/18 11:11:22;;;;;;;3.50;1.80;;;;;;;;;;5134322;28;20034;-71
2023/11/18 11:14:08;;;;;;;2.65;1.80;;;;;;;;;;5133827;28;20031;-70
2023/11/18 11:16:55;;;;;;;5.20;2.30;;;;;;;;;;5137018;27;20087;-70
2023/11/18 11:19:48;;;;;;;2.97;1.98;;;;;;;;;;5137241;27;20080;-71
2023/11/18 11:22:38;;;;;;;4.70;1.92;;;;;;;;;;5137642;27;20011;-70
2023/11/18 11:25:27;;;;;;;2.83;1.90;;;;;;;;;;5137189;27;20019;-70
2023/11/18 11:28:22;;;;;;;3.13;2.03;;;;;;;;;;5137341;27;20015;-70
2023/11/18 11:31:22;;;;;;;4.05;2.15;;;;;;;;;;5137299;27;20054;-71
2023/11/18 11:34:20;;;;;;;4.70;2.20;;;;;;;;;;5128412;27;20019;-71
2023/11/18 11:37:06;;;;;;;5.55;2.22;;;;;;;;;;5120264;27;20341;-72
2023/11/18 11:39:53;;;;;;;7.50;2.35;;;;;;;;;;5101849;28;20107;-73
2023/11/18 11:42:40;;;;;;;5.68;2.53;;;;;;;;;;5100840;28;20025;-73
2023/11/18 11:45:30;;;;;;;3.17;2.30;;;;;;;;;;5116254;28;20024;-73
2023/11/18 11:48:26;;;;;;;3.50;2.42;;;;;;;;;;5116227;28;20444;-71
2023/11/18 11:51:29;;;;;;;4.50;2.45;;;;;;;;;;5127133;27;20039;-73
2023/11/18 11:54:21;;;;;;;3.78;2.42;;;;;;;;;;5123247;27;20046;-72
2023/11/18 11:57:06;;;;;;;5.72;2.55;;;;;;;;;;5121473;27;20111;-73
2023/11/18 11:59:55;;;;;;;3.50;2.65;;;;;;;;;;5136121;27;20015;-71
2023/11/18 12:02:48;;;;;;;5.47;2.83;;;;;;;;;;5136032;27;20466;-72
2023/11/18 12:05:34;;;;;;;4.45;2.78;;;;;;;;;;5136306;27;20023;-74
2023/11/18 12:08:21;;;;;;;3.92;2.45;;;;;;;;;;5122359;27;20027;-69
2023/11/18 12:11:12;;;;;;;4.40;2.70;;;;;;;;;;5122382;27;20398;-72
2023/11/18 12:17:20;;;;;;;6.65;3.30;;;;;;;;;;5136418;27;20451;-71
2023/11/18 12:20:30;;;;;;;5.28;3.30;;;;;;;;;;5121983;27;20434;-71
2023/11/18 12:23:17;;;;;;;5.13;3.35;;;;;;;;;;5136007;27;20087;-73
2023/11/18 12:26:24;;;;;;;6.72;3.85;;;;;;;;;;5135830;27;20018;-72
2023/11/18 12:29:29;;;;;;;8.88;4.32;;;;;;;;;;5115859;28;20020;-75
2023/11/18 12:32:34;;;;;;;6.13;3.33;;;;;;;;;;5114971;28;20033;-73
2023/11/18 12:35:22;;;;;;;5.32;3.55;;;;;;;;;;5115360;28;20054;-75
2023/11/18 12:38:28;;;;;;;6.10;3.88;;;;;;;;;;5112972;27;20359;-76
2023/11/18 12:41:40;;;;;;;6.22;3.42;;;;;;;;;;5114301;27;20399;-74
2023/11/18 12:44:35;;;;;;;5.97;3.53;;;;;;;;;;5121312;27;20058;-73
2023/11/18 12:47:28;;;;;;;5.60;3.10;;;;;;;;;;5121069;27;20548;-73
2023/11/18 12:50:24;;;;;;;5.60;3.20;;;;;;;;;;5136043;27;20027;-73
2023/11/18 12:53:10;;;;;;;6.10;4.13;;;;;;;;;;5137390;27;20375;-70
2023/11/18 12:55:58;;;;;;;13.80;5.25;;;;;;;;;;5120572;27;20517;-70
2023/11/18 12:58:45;;;;;;;6.65;4.43;;;;;;;;;;5131100;27;20054;-71
2023/11/18 13:01:33;;;;;;;11.27;6.78;;;;;;;;;;5115274;28;20012;-71
2023/11/18 13:04:23;;;;;;;17.40;8.90;;;;;;;;;;5115458;28;20440;-71
2023/11/18 13:07:11;;;;;;;11.65;6.70;;;;;;;;;;5114398;28;20023;-71
2023/11/18 13:09:56;;;;;;;12.18;7.47;;;;;;;;;;5101090;28;20160;-68
2023/11/18 13:12:45;;;;;;;9.52;6.00;;;;;;;;;;5100774;28;20058;-69
2023/11/18 13:15:30;;;;;;;9.32;6.28;;;;;;;;;;5100645;28;20043;-69
2023/11/18 13:18:16;;;;;;;8.43;5.85;;;;;;;;;;5101023;28;20020;-69
2023/11/18 13:21:04;;;;;;;9.57;6.13;;;;;;;;;;5100507;28;20020;-70
2023/11/18 13:23:52;;;;;;;10.27;7.03;;;;;;;;;;5115487;28;20069;-71
2023/11/18 13:26:38;;;;;;;13.68;7.15;;;;;;;;;;5100811;28;20034;-70
2023/11/18 13:29:24;;;;;;;13.20;8.15;;;;;;;;;;5115650;28;20108;-70
2023/11/18 13:32:10;;;;;;;10.63;7.32;;;;;;;;;;5115147;28;20038;-71
2023/11/18 13:34:56;;;;;;;13.65;7.90;;;;;;;;;;5117094;27;20513;-71
2023/11/18 13:37:41;;;;;;;17.20;8.18;;;;;;;;;;5135440;27;20023;-71
2023/11/18 13:40:29;;;;;;;12.23;7.25;;;;;;;;;;5134988;27;20088;-71
2023/11/18 13:43:16;;;;;;;15.07;10.20;;;;;;;;;;5135254;27;20087;-71
2023/11/18 13:46:02;;;;;;;14.90;8.48;;;;;;;;;;5134399;27;20031;-71
2023/11/18 13:48:49;;;;;;;12.95;8.55;;;;;;;;;;5134847;27;20054;-71
2023/11/18 13:51:36;;;;;;;13.95;8.27;;;;;;;;;;5125842;27;20038;-71
2023/11/18 13:54:22;;;;;;;13.43;7.60;;;;;;;;;;5134935;27;20106;-72
2023/11/18 13:57:09;;;;;;;11.95;7.15;;;;;;;;;;5125739;27;20459;-72
2023/11/18 13:59:55;;;;;;;11.70;7.63;;;;;;;;;;5099950;28;20038;-72
2023/11/18 14:02:40;;;;;;;12.10;7.78;;;;;;;;;;5114468;28;20035;-71
2023/11/18 14:05:26;;;;;;;12.50;8.65;;;;;;;;;;5099522;28;20019;-70
2023/11/18 14:08:16;;;;;;;17.48;10.90;;;;;;;;;;5099446;28;20012;-72
2023/11/18 14:11:04;;;;;;;16.17;10.88;;;;;;;;;;5112645;28;20089;-71
2023/11/18 14:13:51;;;;;;;17.45;10.32;;;;;;;;;;5097941;28;20512;-71
2023/11/18 14:16:38;;;;;;;14.35;8.77;;;;;;;;;;5099855;28;20044;-70
2023/11/18 14:19:30;;;;;;;12.18;7.05;;;;;;;;;;5114967;28;20080;-71
2023/11/18 14:22:16;;;;;;;7.25;4.47;;;;;;;;;;5112900;28;20092;-70
2023/11/18 14:25:06;;;;;;;9.13;5.55;;;;;;;;;;5113802;28;20028;-71
2023/11/18 14:27:51;;;;;;;7.30;5.18;;;;;;;;;;5113165;28;20024;-72
2023/11/18 14:30:37;;;;;;;8.45;5.10;;;;;;;;;;5113309;28;20040;-72
2023/11/18 14:33:23;;;;;;;7.55;5.03;;;;;;;;;;5113001;28;20034;-71
2023/11/18 14:36:09;;;;;;;6.68;3.85;;;;;;;;;;5113367;28;20023;-70
2023/11/18 14:38:54;;;;;;;8.73;4.57;;;;;;;;;;5113592;28;20024;-71
2023/11/18 14:41:40;;;;;;;4.38;3.20;;;;;;;;;;5112581;28;20076;-71
2023/11/18 14:44:26;;;;;;;5.78;3.20;;;;;;;;;;5098297;28;20042;-71
2023/11/18 14:47:11;;;;;;;5.65;3.33;;;;;;;;;;5119259;28;20023;-70
2023/11/18 14:49:57;;;;;;;5.97;3.78;;;;;;;;;;5134876;27;20084;-72
2023/11/18 14:52:45;;;;;;;5.80;3.72;;;;;;;;;;5138599;27;20036;-72
2023/11/18 14:55:31;;;;;;;7.72;3.55;;;;;;;;;;5138712;27;20055;-72
2023/11/18 14:58:16;;;;;;;7.25;3.70;;;;;;;;;;5138257;27;20034;-71
2023/11/18 15:01:02;;;;;;;8.18;5.15;;;;;;;;;;5123962;27;20019;-70
2023/11/18 15:03:48;;;;;;;18.58;5.13;;;;;;;;;;5137945;27;20011;-71
2023/11/18 15:06:33;;;;;;;6.50;4.53;;;;;;;;;;5137852;27;20024;-71
2023/11/18 15:09:21;;;;;;;9.00;4.60;;;;;;;;;;5137715;27;20448;-71
2023/11/18 15:12:09;;;;;;;11.25;5.57;;;;;;;;;;5137032;27;20033;-71
2023/11/18 15:14:55;;;;;;;15.35;6.13;;;;;;;;;;5138332;27;20023;-71
2023/11/18 15:17:41;;;;;;;22.50;7.05;;;;;;;;;;5122226;27;20464;-72
2023/11/18 15:20:26;;;;;;;12.18;5.95;;;;;;;;;;5138348;27;20039;-72
2023/11/18 15:23:12;;;;;;;13.45;6.13;;;;;;;;;;5137469;27;20015;-71
2023/11/18 15:25:58;;;;;;;11.05;4.97;;;;;;;;;;5137309;27;20470;-73
2023/11/18 15:28:44;;;;;;;15.68;5.47;;;;;;;;;;5123225;27;20050;-72
2023/11/18 15:31:29;;;;;;;7.75;5.07;;;;;;;;;;5137568;27;20027;-69
2023/11/18 15:34:15;;;;;;;6.07;4.53;;;;;;;;;;5124190;27;20359;-72
2023/11/18 15:37:01;;;;;;;10.00;4.78;;;;;;;;;;5136907;27;20038;-72
2023/11/18 15:39:47;;;;;;;10.65;5.07;;;;;;;;;;5123221;27;20022;-73
2023/11/18 15:42:36;;;;;;;7.40;4.57;;;;;;;;;;5136957;27;20050;-72
2023/11/18 15:45:26;;;;;;;7.38;4.70;;;;;;;;;;5136178;27;20439;-72
2023/11/18 15:48:11;;;;;;;10.07;4.97;;;;;;;;;;5136935;27;20031;-73
2023/11/18 15:50:58;;;;;;;9.98;4.40;;;;;;;;;;5136392;27;20436;-70
2023/11/18 15:53:44;;;;;;;7.55;4.13;;;;;;;;;;5136998;27;20373;-70
2023/11/18 15:56:30;;;;;;;10.02;4.63;;;;;;;;;;5121839;27;20042;-71
2023/11/18 15:59:15;;;;;;;11.63;4.93;;;;;;;;;;5136816;27;20439;-70
2023/11/18 16:02:05;;;;;;;8.88;4.05;;;;;;;;;;5121800;27;20015;-70
2023/11/18 16:04:51;;;;;;;6.10;3.60;;;;;;;;;;5137251;27;20023;-72
2023/11/18 16:07:37;;;;;;;7.80;3.58;;;;;;;;;;5122141;27;20034;-73
2023/11/18 16:10:23;;;;;;;8.93;3.22;;;;;;;;;;5136491;27;20023;-72
2023/11/18 16:13:09;;;;;;;5.97;3.10;;;;;;;;;;5136184;27;20016;-71
2023/11/18 16:15:55;;;;;;;5.57;3.03;;;;;;;;;;5135896;27;20030;-70
2023/11/18 16:18:42;;;;;;;6.10;3.20;;;;;;;;;;5137557;27;20030;-70
2023/11/18 16:21:28;;;;;;;5.60;3.20;;;;;;;;;;5121969;27;20478;-72
2023/11/18 16:24:14;;;;;;;5.38;3.35;;;;;;;;;;5136321;27;20026;-72
2023/11/18 16:26:59;;;;;;;6.15;3.55;;;;;;;;;;5135946;27;20146;-72
2023/11/18 16:29:45;;;;;;;6.47;3.67;;;;;;;;;;5136301;27;20023;-72
2023/11/18 16:32:31;;;;;;;5.80;3.00;;;;;;;;;;5136510;27;20039;-72
2023/11/18 16:35:17;;;;;;;8.48;3.65;;;;;;;;;;5121838;27;20164;-71